createdAt,value
2017-03-20T00:00:13.726Z,0
2017-03-20T00:00:54.207Z,0
2017-03-20T00:01:34.691Z,0
2017-03-20T00:02:15.222Z,0
2017-03-20T00:02:55.725Z,0
2017-03-20T00:03:36.206Z,0
2017-03-20T00:04:16.707Z,0
2017-03-20T00:04:57.216Z,0
2017-03-20T00:05:37.700Z,0
2017-03-20T00:06:18.176Z,0
2017-03-20T00:06:58.678Z,0
2017-03-20T00:07:39.142Z,0
2017-03-20T00:08:19.641Z,0
2017-03-20T00:09:00.184Z,0
2017-03-20T00:09:40.624Z,0
2017-03-20T00:10:21.142Z,0
2017-03-20T00:11:01.628Z,0
2017-03-20T00:11:42.106Z,0
2017-03-20T00:12:22.609Z,0
2017-03-20T00:13:03.078Z,0
2017-03-20T00:13:43.569Z,0
2017-03-20T00:14:24.066Z,0
2017-03-20T00:15:04.550Z,0
2017-03-20T00:15:45.041Z,0
2017-03-20T00:16:25.510Z,0
2017-03-20T00:17:06.040Z,0
2017-03-20T00:17:46.533Z,0
2017-03-20T00:18:27.050Z,0
2017-03-20T00:19:07.516Z,0
2017-03-20T00:19:48.022Z,0
2017-03-20T00:20:28.500Z,0
2017-03-20T00:21:09.030Z,0
2017-03-20T00:21:49.463Z,0
2017-03-20T00:22:29.960Z,0
2017-03-20T00:23:10.483Z,0
2017-03-20T00:23:50.974Z,0
2017-03-20T00:24:31.424Z,0
2017-03-20T00:25:11.920Z,0
2017-03-20T00:25:52.413Z,0
2017-03-20T00:26:32.939Z,0
2017-03-20T00:27:13.428Z,0
2017-03-20T00:27:53.933Z,0
2017-03-20T00:28:34.429Z,0
2017-03-20T00:29:14.950Z,0
2017-03-20T00:29:55.436Z,0
2017-03-20T00:30:35.918Z,0
2017-03-20T00:31:16.410Z,0
2017-03-20T00:31:56.985Z,0
2017-03-20T00:32:37.457Z,0
2017-03-20T00:33:17.949Z,0
2017-03-20T00:33:58.463Z,0
2017-03-20T00:34:38.938Z,0
2017-03-20T00:35:19.407Z,0
2017-03-20T00:35:59.945Z,0
2017-03-20T00:36:40.455Z,0
2017-03-20T00:37:20.909Z,0
2017-03-20T00:38:01.426Z,0
2017-03-20T00:38:41.990Z,0
2017-03-20T00:39:22.465Z,0
2017-03-20T00:40:02.971Z,0
2017-03-20T00:40:43.461Z,0
2017-03-20T00:41:23.944Z,0
2017-03-20T00:42:04.446Z,0
2017-03-20T00:42:44.959Z,0
2017-03-20T00:43:25.450Z,0
2017-03-20T00:44:05.955Z,0
2017-03-20T00:44:46.437Z,0
2017-03-20T00:45:26.939Z,0
2017-03-20T00:46:07.425Z,0
2017-03-20T00:46:47.889Z,0
2017-03-20T00:47:28.387Z,0
2017-03-20T00:48:08.887Z,0
2017-03-20T00:48:49.382Z,0
2017-03-20T00:49:29.875Z,0
2017-03-20T00:50:10.349Z,0
2017-03-20T00:50:50.852Z,0
2017-03-20T00:51:31.344Z,0
2017-03-20T00:52:11.837Z,0
2017-03-20T00:52:52.310Z,0
2017-03-20T00:53:32.788Z,0
2017-03-20T00:54:13.286Z,0
2017-03-20T00:54:53.775Z,0
2017-03-20T00:55:34.247Z,0
2017-03-20T00:56:14.722Z,0
2017-03-20T00:56:55.205Z,0
2017-03-20T00:57:35.724Z,0
2017-03-20T00:58:16.196Z,0
2017-03-20T00:58:56.697Z,0
2017-03-20T00:59:37.178Z,0
2017-03-20T01:00:17.666Z,0
2017-03-20T01:00:58.167Z,0
2017-03-20T01:01:38.641Z,0
2017-03-20T01:02:19.121Z,0
2017-03-20T01:02:59.612Z,0
2017-03-20T01:03:40.127Z,0
2017-03-20T01:04:20.635Z,0
2017-03-20T01:05:01.107Z,0
2017-03-20T01:05:41.584Z,0
2017-03-20T01:06:22.099Z,0
2017-03-20T01:07:02.583Z,0
2017-03-20T01:07:43.084Z,0
2017-03-20T01:08:23.582Z,0
2017-03-20T01:09:04.052Z,0
2017-03-20T01:09:44.560Z,0
2017-03-20T01:10:25.060Z,0
2017-03-20T01:11:05.531Z,0
2017-03-20T01:11:46.005Z,0
2017-03-20T01:12:26.496Z,0
2017-03-20T01:13:07.005Z,0
2017-03-20T01:13:47.493Z,0
2017-03-20T01:14:27.980Z,0
2017-03-20T01:15:08.467Z,0
2017-03-20T01:15:48.986Z,0
2017-03-20T01:16:29.477Z,0
2017-03-20T01:17:09.955Z,0
2017-03-20T01:17:50.430Z,0
2017-03-20T01:18:30.914Z,0
2017-03-20T01:19:11.414Z,0
2017-03-20T01:19:51.975Z,0
2017-03-20T01:20:32.443Z,0
2017-03-20T01:21:12.968Z,0
2017-03-20T01:21:53.460Z,0
2017-03-20T01:22:33.935Z,0
2017-03-20T01:23:14.418Z,0
2017-03-20T01:23:54.900Z,0
2017-03-20T01:24:35.415Z,0
2017-03-20T01:25:15.905Z,0
2017-03-20T01:25:56.382Z,0
2017-03-20T01:26:36.859Z,0
2017-03-20T01:27:17.376Z,0
2017-03-20T01:27:57.844Z,0
2017-03-20T01:28:38.316Z,0
2017-03-20T01:29:18.786Z,0
2017-03-20T01:29:59.267Z,0
2017-03-20T01:30:39.734Z,0
2017-03-20T01:31:20.235Z,0
2017-03-20T01:32:00.715Z,0
2017-03-20T01:32:41.204Z,0
2017-03-20T01:33:21.719Z,0
2017-03-20T01:34:02.219Z,0
2017-03-20T01:34:42.805Z,0
2017-03-20T01:35:23.309Z,0
2017-03-20T01:36:03.855Z,0
2017-03-20T01:36:44.341Z,0
2017-03-20T01:37:24.822Z,0
2017-03-20T01:38:05.321Z,0
2017-03-20T01:38:45.789Z,0
2017-03-20T01:39:26.283Z,0
2017-03-20T01:40:06.798Z,0
2017-03-20T01:40:47.270Z,0
2017-03-20T01:41:27.785Z,0
2017-03-20T01:42:08.298Z,0
2017-03-20T01:42:48.793Z,0
2017-03-20T01:43:29.295Z,0
2017-03-20T01:44:09.783Z,0
2017-03-20T01:44:50.246Z,0
2017-03-20T01:45:30.762Z,0
2017-03-20T01:46:11.271Z,0
2017-03-20T01:46:51.826Z,0
2017-03-20T01:47:32.293Z,0
2017-03-20T01:48:12.795Z,0
2017-03-20T01:48:53.272Z,0
2017-03-20T01:49:33.747Z,0
2017-03-20T01:50:14.281Z,0
2017-03-20T01:50:54.761Z,0
2017-03-20T01:51:35.252Z,0
2017-03-20T01:52:15.718Z,0
2017-03-20T01:52:56.248Z,0
2017-03-20T01:53:36.725Z,0
2017-03-20T01:54:17.267Z,0
2017-03-20T01:54:57.737Z,0
2017-03-20T01:55:38.218Z,0
2017-03-20T01:56:18.725Z,0
2017-03-20T01:56:59.221Z,0
2017-03-20T01:57:39.715Z,0
2017-03-20T01:58:20.190Z,0
2017-03-20T01:59:00.663Z,0
2017-03-20T02:01:13.910Z,0
2017-03-20T02:01:54.324Z,0
2017-03-20T02:02:34.802Z,0
2017-03-20T02:03:15.365Z,0
2017-03-20T02:03:55.844Z,0
2017-03-20T02:04:36.362Z,0
2017-03-20T02:05:16.855Z,0
2017-03-20T02:05:57.344Z,0
2017-03-20T02:06:37.837Z,0
2017-03-20T02:07:18.297Z,0
2017-03-20T02:07:58.789Z,0
2017-03-20T02:08:39.301Z,0
2017-03-20T02:09:19.807Z,0
2017-03-20T02:10:00.332Z,0
2017-03-20T02:10:40.838Z,0
2017-03-20T02:11:21.332Z,0
2017-03-20T02:12:01.830Z,0
2017-03-20T02:12:42.317Z,0
2017-03-20T02:13:22.840Z,0
2017-03-20T02:14:03.353Z,0
2017-03-20T02:14:43.836Z,0
2017-03-20T02:15:24.349Z,0
2017-03-20T02:16:04.849Z,0
2017-03-20T02:16:45.408Z,0
2017-03-20T02:17:25.882Z,0
2017-03-20T02:18:06.382Z,0
2017-03-20T02:18:46.889Z,0
2017-03-20T02:19:27.371Z,0
2017-03-20T02:20:07.833Z,0
2017-03-20T02:20:48.405Z,0
2017-03-20T02:21:28.861Z,0
2017-03-20T02:22:09.377Z,0
2017-03-20T02:22:49.844Z,0
2017-03-20T02:23:30.366Z,0
2017-03-20T02:24:10.828Z,0
2017-03-20T02:24:51.319Z,0
2017-03-20T02:25:31.828Z,0
2017-03-20T02:26:12.319Z,0
2017-03-20T02:26:52.810Z,0
2017-03-20T02:27:33.307Z,0
2017-03-20T02:28:13.787Z,0
2017-03-20T02:28:54.264Z,0
2017-03-20T02:29:34.749Z,0
2017-03-20T02:30:15.246Z,0
2017-03-20T02:30:55.768Z,0
2017-03-20T02:31:36.249Z,0
2017-03-20T02:32:16.729Z,0
2017-03-20T02:32:57.195Z,0
2017-03-20T02:33:37.683Z,0
2017-03-20T02:34:18.164Z,0
2017-03-20T02:34:58.650Z,0
2017-03-20T02:35:39.139Z,0
2017-03-20T02:36:19.617Z,0
2017-03-20T02:37:00.125Z,0
2017-03-20T02:37:40.627Z,0
2017-03-20T02:38:21.087Z,0
2017-03-20T02:39:01.569Z,0
2017-03-20T02:39:42.038Z,0
2017-03-20T02:40:22.567Z,0
2017-03-20T02:41:03.058Z,0
2017-03-20T02:41:43.539Z,0
2017-03-20T02:42:23.992Z,0
2017-03-20T02:43:04.488Z,0
2017-03-20T02:43:44.955Z,0
2017-03-20T02:44:25.418Z,0
2017-03-20T02:45:05.933Z,0
2017-03-20T02:45:46.468Z,0
2017-03-20T02:46:26.960Z,0
2017-03-20T02:47:07.461Z,0
2017-03-20T02:47:47.965Z,0
2017-03-20T02:48:28.461Z,0
2017-03-20T02:49:08.989Z,0
2017-03-20T02:49:49.461Z,0
2017-03-20T02:50:29.979Z,0
2017-03-20T02:51:10.460Z,0
2017-03-20T02:51:50.951Z,0
2017-03-20T02:52:31.468Z,0
2017-03-20T02:53:11.963Z,0
2017-03-20T02:53:52.436Z,0
2017-03-20T02:54:32.922Z,0
2017-03-20T02:55:13.468Z,0
2017-03-20T02:55:53.946Z,0
2017-03-20T02:56:34.439Z,0
2017-03-20T02:57:14.949Z,0
2017-03-20T02:57:55.441Z,0
2017-03-20T02:58:35.954Z,0
2017-03-20T02:59:16.417Z,0
2017-03-20T02:59:56.919Z,0
2017-03-20T03:00:37.414Z,0
2017-03-20T03:01:17.914Z,0
2017-03-20T03:01:58.417Z,0
2017-03-20T03:02:38.906Z,0
2017-03-20T03:03:19.372Z,0
2017-03-20T03:03:59.872Z,0
2017-03-20T03:04:40.343Z,0
2017-03-20T03:05:20.839Z,0
2017-03-20T03:06:01.362Z,0
2017-03-20T03:06:41.881Z,0
2017-03-20T03:07:22.370Z,0
2017-03-20T03:08:02.871Z,0
2017-03-20T03:08:43.341Z,0
2017-03-20T03:09:23.803Z,0
2017-03-20T03:10:04.287Z,0
2017-03-20T03:10:44.856Z,0
2017-03-20T03:11:25.352Z,0
2017-03-20T03:12:05.840Z,0
2017-03-20T03:12:46.340Z,0
2017-03-20T03:13:26.819Z,0
2017-03-20T03:14:07.294Z,0
2017-03-20T03:14:47.806Z,0
2017-03-20T03:15:28.307Z,0
2017-03-20T03:16:08.809Z,0
2017-03-20T03:16:49.279Z,0
2017-03-20T03:17:29.782Z,0
2017-03-20T03:18:10.261Z,0
2017-03-20T03:18:50.778Z,0
2017-03-20T03:19:31.273Z,0
2017-03-20T03:20:11.748Z,0
2017-03-20T03:20:52.245Z,0
2017-03-20T03:21:32.751Z,0
2017-03-20T03:22:13.269Z,0
2017-03-20T03:22:53.794Z,0
2017-03-20T03:23:34.276Z,0
2017-03-20T03:24:14.764Z,0
2017-03-20T03:24:55.233Z,0
2017-03-20T03:25:35.759Z,0
2017-03-20T03:26:16.288Z,0
2017-03-20T03:26:56.745Z,0
2017-03-20T03:27:37.233Z,0
2017-03-20T03:28:17.723Z,0
2017-03-20T03:28:58.221Z,0
2017-03-20T03:29:38.709Z,0
2017-03-20T03:30:19.166Z,0
2017-03-20T03:30:59.677Z,0
2017-03-20T03:31:40.175Z,0
2017-03-20T03:32:20.685Z,0
2017-03-20T03:33:01.166Z,0
2017-03-20T03:33:41.678Z,0
2017-03-20T03:34:22.156Z,0
2017-03-20T03:35:02.655Z,0
2017-03-20T03:35:43.147Z,0
2017-03-20T03:36:23.634Z,0
2017-03-20T03:37:04.119Z,0
2017-03-20T03:37:44.599Z,0
2017-03-20T03:38:25.092Z,0
2017-03-20T03:39:05.600Z,0
2017-03-20T03:39:46.096Z,0
2017-03-20T03:40:26.555Z,0
2017-03-20T03:41:07.049Z,0
2017-03-20T03:41:47.585Z,0
2017-03-20T03:42:28.137Z,0
2017-03-20T03:43:08.617Z,0
2017-03-20T03:43:49.135Z,0
2017-03-20T03:44:29.641Z,0
2017-03-20T03:45:10.108Z,0
2017-03-20T03:45:50.624Z,0
2017-03-20T03:46:31.086Z,0
2017-03-20T03:47:11.604Z,0
2017-03-20T03:47:52.087Z,0
2017-03-20T03:48:32.587Z,0
2017-03-20T03:49:13.054Z,0
2017-03-20T03:49:53.572Z,0
2017-03-20T03:50:34.106Z,0
2017-03-20T03:51:14.567Z,0
2017-03-20T03:51:55.042Z,0
2017-03-20T03:52:35.559Z,0
2017-03-20T03:53:16.044Z,0
2017-03-20T03:53:56.516Z,0
2017-03-20T03:54:37.016Z,0
2017-03-20T03:55:17.467Z,0
2017-03-20T03:55:57.987Z,0
2017-03-20T03:56:38.427Z,0
2017-03-20T03:57:18.937Z,0
2017-03-20T03:57:59.384Z,0
2017-03-20T03:58:39.896Z,0
2017-03-20T03:59:20.378Z,0
2017-03-20T04:00:00.893Z,0
2017-03-20T04:00:41.366Z,0
2017-03-20T04:01:21.855Z,0
2017-03-20T04:02:02.385Z,0
2017-03-20T04:02:42.966Z,0
2017-03-20T04:03:23.470Z,0
2017-03-20T04:04:03.969Z,0
2017-03-20T04:04:44.466Z,0
2017-03-20T04:05:24.945Z,0
2017-03-20T04:06:05.437Z,0
2017-03-20T04:06:45.920Z,0
2017-03-20T04:07:26.381Z,0
2017-03-20T04:08:06.863Z,0
2017-03-20T04:08:47.380Z,0
2017-03-20T04:09:27.872Z,0
2017-03-20T04:10:08.372Z,0
2017-03-20T04:10:48.858Z,0
2017-03-20T04:11:29.341Z,0
2017-03-20T04:12:09.857Z,0
2017-03-20T04:12:50.327Z,0
2017-03-20T04:13:30.824Z,0
2017-03-20T04:14:11.308Z,0
2017-03-20T04:14:51.793Z,0
2017-03-20T04:15:32.261Z,0
2017-03-20T04:16:12.729Z,0
2017-03-20T04:16:53.216Z,0
2017-03-20T04:17:33.726Z,0
2017-03-20T04:18:14.205Z,0
2017-03-20T04:18:54.704Z,0
2017-03-20T04:19:35.188Z,0
2017-03-20T04:20:15.682Z,0
2017-03-20T04:20:56.135Z,0
2017-03-20T04:21:36.664Z,0
2017-03-20T04:22:17.135Z,0
2017-03-20T04:22:57.592Z,0
2017-03-20T04:23:38.079Z,0
2017-03-20T04:24:18.598Z,0
2017-03-20T04:24:59.136Z,0
2017-03-20T04:25:39.637Z,0
2017-03-20T04:26:20.128Z,0
2017-03-20T04:27:00.631Z,0
2017-03-20T04:27:41.138Z,0
2017-03-20T04:28:21.593Z,0
2017-03-20T04:29:02.087Z,0
2017-03-20T04:29:42.569Z,0
2017-03-20T04:30:23.066Z,0
2017-03-20T04:31:03.556Z,0
2017-03-20T04:31:44.024Z,0
2017-03-20T04:32:24.563Z,0
2017-03-20T04:33:05.075Z,0
2017-03-20T04:33:45.564Z,0
2017-03-20T04:34:26.098Z,0
2017-03-20T04:35:06.580Z,0
2017-03-20T04:35:47.061Z,0
2017-03-20T04:36:27.570Z,0
2017-03-20T04:37:08.024Z,0
2017-03-20T04:37:48.493Z,0
2017-03-20T04:38:29.011Z,0
2017-03-20T04:39:09.458Z,0
2017-03-20T04:39:49.958Z,0
2017-03-20T04:40:30.524Z,0
2017-03-20T04:41:10.968Z,0
2017-03-20T04:41:51.466Z,0
2017-03-20T04:42:31.979Z,0
2017-03-20T04:43:12.439Z,0
2017-03-20T04:43:52.916Z,0
2017-03-20T04:44:33.416Z,0
2017-03-20T04:45:13.890Z,0
2017-03-20T04:45:54.384Z,0
2017-03-20T04:46:34.905Z,0
2017-03-20T04:47:15.388Z,0
2017-03-20T04:47:55.903Z,0
2017-03-20T04:48:36.420Z,0
2017-03-20T04:49:16.886Z,0
2017-03-20T04:49:57.358Z,0
2017-03-20T04:50:37.856Z,0
2017-03-20T04:51:18.344Z,0
2017-03-20T04:51:58.823Z,0
2017-03-20T04:52:39.310Z,0
2017-03-20T04:53:19.801Z,0
2017-03-20T04:54:00.291Z,0
2017-03-20T04:54:40.795Z,0
2017-03-20T04:55:21.307Z,0
2017-03-20T04:56:01.798Z,0
2017-03-20T04:56:42.262Z,0
2017-03-20T04:57:22.805Z,0
2017-03-20T04:58:03.273Z,0
2017-03-20T04:58:43.796Z,0
2017-03-20T04:59:24.285Z,0
2017-03-20T05:00:04.780Z,0
2017-03-20T05:00:45.296Z,0
2017-03-20T05:01:25.842Z,0
2017-03-20T05:02:06.334Z,0
2017-03-20T05:02:46.846Z,0
2017-03-20T05:03:27.312Z,0
2017-03-20T05:04:07.801Z,0
2017-03-20T05:04:48.325Z,0
2017-03-20T05:05:28.808Z,0
2017-03-20T05:06:09.306Z,0
2017-03-20T05:06:49.766Z,0
2017-03-20T05:07:30.248Z,0
2017-03-20T05:08:10.775Z,0
2017-03-20T05:08:51.260Z,0
2017-03-20T05:09:31.731Z,0
2017-03-20T05:10:12.225Z,0
2017-03-20T05:10:52.704Z,0
2017-03-20T05:11:33.227Z,0
2017-03-20T05:12:13.743Z,0
2017-03-20T05:12:54.269Z,0
2017-03-20T05:13:34.765Z,0
2017-03-20T05:14:15.283Z,0
2017-03-20T05:14:55.821Z,0
2017-03-20T05:15:36.347Z,0
2017-03-20T05:16:16.863Z,0
2017-03-20T05:16:57.339Z,0
2017-03-20T05:17:38.475Z,0
2017-03-20T05:18:19.064Z,0
2017-03-20T05:18:59.552Z,0
2017-03-20T05:19:40.356Z,0
2017-03-20T05:20:20.914Z,0
2017-03-20T05:21:01.382Z,0
2017-03-20T05:21:42.019Z,0
2017-03-20T05:22:29.095Z,0
2017-03-20T05:23:09.684Z,0
2017-03-20T05:23:50.173Z,0
2017-03-20T05:24:30.661Z,0
2017-03-20T05:25:11.158Z,5
2017-03-20T05:25:51.648Z,5
2017-03-20T05:26:32.105Z,5
2017-03-20T05:27:12.637Z,5
2017-03-20T05:27:53.143Z,5
2017-03-20T05:28:33.611Z,5
2017-03-20T05:29:14.073Z,5
2017-03-20T05:29:54.574Z,5
2017-03-20T05:30:35.055Z,5
2017-03-20T05:31:15.533Z,5
2017-03-20T05:31:56.065Z,5
2017-03-20T05:32:36.582Z,5
2017-03-20T05:33:17.035Z,5
2017-03-20T05:33:57.523Z,5
2017-03-20T05:34:38.027Z,5
2017-03-20T05:35:18.547Z,5
2017-03-20T05:35:59.030Z,5
2017-03-20T05:36:39.506Z,5
2017-03-20T05:37:19.996Z,5
2017-03-20T05:38:00.512Z,5
2017-03-20T05:38:41.062Z,5
2017-03-20T05:39:21.577Z,10
2017-03-20T05:40:02.091Z,10
2017-03-20T05:40:42.588Z,10
2017-03-20T05:41:23.062Z,10
2017-03-20T05:42:03.531Z,10
2017-03-20T05:42:44.027Z,10
2017-03-20T05:43:24.496Z,10
2017-03-20T05:44:04.957Z,10
2017-03-20T05:44:45.431Z,10
2017-03-20T05:45:25.905Z,10
2017-03-20T05:46:06.409Z,10
2017-03-20T05:46:46.905Z,10
2017-03-20T05:47:27.391Z,10
2017-03-20T05:48:07.860Z,10
2017-03-20T05:48:48.335Z,10
2017-03-20T05:49:28.826Z,15
2017-03-20T05:50:09.311Z,15
2017-03-20T05:50:49.795Z,15
2017-03-20T05:51:30.269Z,15
2017-03-20T05:52:10.849Z,15
2017-03-20T05:52:51.319Z,15
2017-03-20T05:53:31.803Z,15
2017-03-20T05:54:12.305Z,15
2017-03-20T05:54:52.752Z,15
2017-03-20T05:55:33.256Z,20
2017-03-20T05:56:13.744Z,20
2017-03-20T05:56:54.241Z,20
2017-03-20T05:57:34.750Z,20
2017-03-20T05:58:15.229Z,25
2017-03-20T05:58:55.721Z,25
2017-03-20T05:59:36.218Z,25
2017-03-20T06:00:16.713Z,25
2017-03-20T06:00:57.185Z,25
2017-03-20T06:01:37.699Z,25
2017-03-20T06:02:18.155Z,25
2017-03-20T06:02:58.697Z,25
2017-03-20T06:03:39.201Z,25
2017-03-20T06:04:19.691Z,25
2017-03-20T06:05:00.206Z,30
2017-03-20T06:05:40.680Z,30
2017-03-20T06:06:21.169Z,30
2017-03-20T06:07:01.673Z,30
2017-03-20T06:07:42.177Z,35
2017-03-20T06:08:23.009Z,30
2017-03-20T06:09:03.671Z,30
2017-03-20T06:09:44.473Z,30
2017-03-20T06:10:24.969Z,30
2017-03-20T06:11:05.417Z,30
2017-03-20T06:11:45.938Z,30
2017-03-20T06:12:26.402Z,30
2017-03-20T06:13:06.900Z,30
2017-03-20T06:13:47.355Z,30
2017-03-20T06:14:27.974Z,30
2017-03-20T06:15:08.454Z,30
2017-03-20T06:15:49.021Z,30
2017-03-20T06:16:29.584Z,30
2017-03-20T06:17:10.040Z,30
2017-03-20T06:17:50.526Z,30
2017-03-20T06:18:31.055Z,30
2017-03-20T06:19:11.524Z,30
2017-03-20T06:19:52.000Z,30
2017-03-20T06:20:32.554Z,30
2017-03-20T06:21:13.085Z,30
2017-03-20T06:21:53.521Z,30
2017-03-20T06:22:34.029Z,35
2017-03-20T06:23:14.563Z,35
2017-03-20T06:23:55.029Z,35
2017-03-20T06:24:35.521Z,40
2017-03-20T06:25:15.992Z,40
2017-03-20T06:25:56.592Z,45
2017-03-20T06:28:15.906Z,45
2017-03-20T06:28:56.370Z,50
2017-03-20T06:29:36.858Z,50
2017-03-20T06:30:17.357Z,55
2017-03-20T06:30:57.851Z,60
2017-03-20T06:31:38.331Z,60
2017-03-20T06:32:18.818Z,60
2017-03-20T06:32:59.293Z,60
2017-03-20T06:33:39.831Z,60
2017-03-20T06:34:20.263Z,65
2017-03-20T06:35:00.748Z,70
2017-03-20T06:35:41.247Z,70
2017-03-20T06:36:21.774Z,75
2017-03-20T06:37:02.261Z,80
2017-03-20T06:37:42.742Z,85
2017-03-20T06:38:23.230Z,100
2017-03-20T06:39:03.686Z,110
2017-03-20T06:39:44.213Z,115
2017-03-20T06:40:24.615Z,120
2017-03-20T06:41:05.169Z,120
2017-03-20T06:41:45.732Z,125
2017-03-20T06:42:26.170Z,135
2017-03-20T06:43:06.660Z,135
2017-03-20T06:43:47.229Z,140
2017-03-20T06:44:27.714Z,140
2017-03-20T06:45:08.267Z,145
2017-03-20T06:45:49.495Z,150
2017-03-20T06:46:29.996Z,145
2017-03-20T06:47:10.430Z,140
2017-03-20T06:47:50.888Z,130
2017-03-20T06:48:31.438Z,130
2017-03-20T06:49:11.919Z,130
2017-03-20T06:49:52.389Z,130
2017-03-20T06:50:32.892Z,125
2017-03-20T06:51:13.337Z,130
2017-03-20T06:51:53.806Z,125
2017-03-20T06:52:34.248Z,125
2017-03-20T06:53:14.768Z,120
2017-03-20T06:53:55.265Z,120
2017-03-20T06:54:35.748Z,120
2017-03-20T06:55:16.229Z,125
2017-03-20T06:55:56.721Z,130
2017-03-20T06:56:37.203Z,135
2017-03-20T06:57:17.705Z,135
2017-03-20T06:57:58.173Z,135
2017-03-20T06:58:38.678Z,135
2017-03-20T06:59:19.143Z,130
2017-03-20T06:59:59.638Z,135
2017-03-20T07:00:40.119Z,140
2017-03-20T07:01:21.247Z,140
2017-03-20T07:02:02.322Z,140
2017-03-20T07:02:42.775Z,135
2017-03-20T07:03:23.242Z,135
2017-03-20T07:04:03.746Z,140
2017-03-20T07:04:44.217Z,150
2017-03-20T07:05:24.720Z,145
2017-03-20T07:06:05.173Z,145
2017-03-20T07:06:45.656Z,155
2017-03-20T07:07:26.220Z,155
2017-03-20T07:08:06.670Z,165
2017-03-20T07:08:47.179Z,170
2017-03-20T07:09:27.900Z,175
2017-03-20T07:10:08.285Z,180
2017-03-20T07:10:48.814Z,180
2017-03-20T07:11:29.382Z,185
2017-03-20T07:12:09.905Z,195
2017-03-20T07:12:50.390Z,195
2017-03-20T07:13:30.875Z,200
2017-03-20T07:14:11.474Z,200
2017-03-20T07:14:51.980Z,200
2017-03-20T07:15:32.450Z,200
2017-03-20T07:16:12.963Z,195
2017-03-20T07:16:53.446Z,190
2017-03-20T07:17:33.934Z,180
2017-03-20T07:18:14.412Z,180
2017-03-20T07:18:54.889Z,170
2017-03-20T07:19:35.479Z,160
2017-03-20T07:20:15.944Z,150
2017-03-20T07:20:56.499Z,140
2017-03-20T07:21:36.969Z,135
2017-03-20T07:22:17.451Z,130
2017-03-20T07:22:57.917Z,120
2017-03-20T07:23:38.578Z,115
2017-03-20T07:24:19.049Z,110
2017-03-20T07:24:59.532Z,115
2017-03-20T07:25:40.041Z,115
2017-03-20T07:26:20.533Z,120
2017-03-20T07:27:01.032Z,115
2017-03-20T07:27:41.595Z,120
2017-03-20T07:28:22.097Z,115
2017-03-20T07:29:02.579Z,120
2017-03-20T07:29:43.068Z,120
2017-03-20T07:30:23.540Z,125
2017-03-20T07:31:04.048Z,125
2017-03-20T07:31:44.567Z,130
2017-03-20T07:32:25.021Z,125
2017-03-20T07:33:05.496Z,125
2017-03-20T07:33:45.977Z,125
2017-03-20T07:34:26.454Z,125
2017-03-20T07:35:06.976Z,125
2017-03-20T07:35:47.490Z,125
2017-03-20T07:36:28.050Z,120
2017-03-20T07:37:08.518Z,120
2017-03-20T07:37:49.033Z,130
2017-03-20T07:38:29.489Z,130
2017-03-20T07:39:09.981Z,135
2017-03-20T07:39:50.434Z,130
2017-03-20T07:40:30.941Z,135
2017-03-20T07:41:11.389Z,135
2017-03-20T07:41:51.898Z,155
2017-03-20T07:42:32.347Z,165
2017-03-20T07:43:12.828Z,170
2017-03-20T07:43:53.310Z,165
2017-03-20T07:44:33.756Z,160
2017-03-20T07:45:14.287Z,160
2017-03-20T07:45:54.761Z,155
2017-03-20T07:46:35.314Z,155
2017-03-20T07:47:15.836Z,150
2017-03-20T07:47:56.417Z,150
2017-03-20T07:48:37.056Z,155
2017-03-20T07:49:17.543Z,140
2017-03-20T07:50:00.300Z,135
2017-03-20T07:50:40.799Z,140
2017-03-20T07:51:21.284Z,140
2017-03-20T07:52:01.765Z,140
2017-03-20T07:52:42.340Z,145
2017-03-20T07:53:23.040Z,145
2017-03-20T07:54:03.567Z,140
2017-03-20T07:54:44.095Z,140
2017-03-20T07:55:24.566Z,155
2017-03-20T07:56:05.063Z,175
2017-03-20T07:56:45.565Z,175
2017-03-20T07:57:26.034Z,170
2017-03-20T07:58:06.531Z,175
2017-03-20T07:58:47.003Z,190
2017-03-20T07:59:27.492Z,190
2017-03-20T08:00:08.019Z,195
2017-03-20T08:00:48.524Z,215
2017-03-20T08:01:29.021Z,220
2017-03-20T08:02:09.613Z,225
2017-03-20T08:06:08.621Z,235
2017-03-20T08:06:48.906Z,230
2017-03-20T08:07:29.737Z,230
2017-03-20T08:08:11.766Z,225
2017-03-20T08:08:52.456Z,210
2017-03-20T08:09:32.962Z,200
2017-03-20T08:10:13.513Z,195
2017-03-20T08:10:54.011Z,200
2017-03-20T08:11:34.460Z,195
2017-03-20T08:12:15.000Z,195
2017-03-20T08:12:55.475Z,190
2017-03-20T08:13:36.018Z,180
2017-03-20T08:14:16.465Z,185
2017-03-20T08:14:56.957Z,195
2017-03-20T08:15:37.705Z,190
2017-03-20T08:16:18.520Z,195
2017-03-20T08:16:59.371Z,200
2017-03-20T08:17:39.907Z,210
2017-03-20T08:18:20.361Z,215
2017-03-20T08:19:00.989Z,210
2017-03-20T08:19:41.358Z,215
2017-03-20T08:20:21.842Z,220
2017-03-20T08:21:02.484Z,220
2017-03-20T08:21:43.158Z,210
2017-03-20T08:22:23.637Z,205
2017-03-20T08:23:04.455Z,200
2017-03-20T08:23:44.964Z,190
2017-03-20T08:24:25.506Z,195
2017-03-20T08:25:08.521Z,190
2017-03-20T08:25:50.502Z,215
2017-03-20T08:26:31.225Z,215
2017-03-20T08:29:08.545Z,315
2017-03-20T08:29:49.041Z,310
2017-03-20T08:30:29.535Z,300
2017-03-20T08:31:10.028Z,300
2017-03-20T08:31:50.536Z,280
2017-03-20T08:32:31.025Z,250
2017-03-20T08:33:11.475Z,235
2017-03-20T08:33:51.969Z,210
2017-03-20T08:34:32.506Z,190
2017-03-20T08:35:12.943Z,185
2017-03-20T08:35:53.445Z,180
2017-03-20T08:36:35.106Z,170
2017-03-20T08:37:15.566Z,170
2017-03-20T08:37:56.084Z,150
2017-03-20T08:38:36.555Z,135
2017-03-20T08:39:17.046Z,145
2017-03-20T08:39:57.658Z,140
2017-03-20T08:40:38.154Z,130
2017-03-20T08:41:18.724Z,135
2017-03-20T08:41:59.247Z,130
2017-03-20T08:42:39.743Z,120
2017-03-20T08:43:20.300Z,120
2017-03-20T08:44:04.528Z,110
2017-03-20T08:44:52.937Z,105
2017-03-20T08:45:38.730Z,85
2017-03-20T08:46:18.938Z,75
2017-03-20T08:46:59.409Z,80
2017-03-20T08:47:40.841Z,80
2017-03-20T08:48:27.607Z,75
2017-03-20T08:49:08.107Z,70
2017-03-20T08:49:48.559Z,70
2017-03-20T08:50:29.107Z,70
2017-03-20T08:51:09.593Z,75
2017-03-20T08:51:50.148Z,80
2017-03-20T08:52:30.593Z,80
2017-03-20T08:53:11.139Z,85
2017-03-20T08:53:51.712Z,85
2017-03-20T08:54:32.140Z,85
2017-03-20T08:55:12.687Z,85
2017-03-20T08:55:53.185Z,80
2017-03-20T08:56:33.652Z,80
2017-03-20T08:57:15.167Z,75
2017-03-20T08:57:55.659Z,80
2017-03-20T08:58:36.188Z,80
2017-03-20T08:59:16.876Z,70
2017-03-20T08:59:57.386Z,65
2017-03-20T09:00:37.887Z,55
2017-03-20T09:03:14.280Z,55
2017-03-20T09:03:55.063Z,70
2017-03-20T09:04:35.618Z,80
2017-03-20T09:05:16.085Z,80
2017-03-20T09:05:56.791Z,85
2017-03-20T09:06:37.485Z,95
2017-03-20T09:07:18.029Z,105
2017-03-20T09:07:58.565Z,100
2017-03-20T09:08:39.045Z,105
2017-03-20T09:09:19.827Z,90
2017-03-20T09:10:00.317Z,90
2017-03-20T09:10:40.812Z,80
2017-03-20T09:11:21.333Z,80
2017-03-20T09:12:01.854Z,85
2017-03-20T09:12:42.360Z,85
2017-03-20T09:13:22.859Z,85
2017-03-20T09:14:03.331Z,75
2017-03-20T09:14:43.886Z,60
2017-03-20T09:15:25.012Z,55
2017-03-20T09:16:08.924Z,50
2017-03-20T09:16:52.618Z,45
2017-03-20T09:17:35.277Z,40
2017-03-20T09:18:16.218Z,40
2017-03-20T09:18:56.696Z,40
2017-03-20T09:19:37.236Z,45
2017-03-20T09:20:17.750Z,45
2017-03-20T09:20:58.238Z,45
2017-03-20T09:21:38.998Z,40
2017-03-20T09:22:19.513Z,45
2017-03-20T09:23:00.074Z,50
2017-03-20T09:23:40.678Z,55
2017-03-20T09:24:21.256Z,60
2017-03-20T09:25:01.744Z,65
2017-03-20T09:25:42.408Z,70
2017-03-20T09:26:22.900Z,70
2017-03-20T09:27:03.440Z,85
2017-03-20T09:27:44.062Z,85
2017-03-20T09:28:24.610Z,75
2017-03-20T09:29:05.125Z,85
2017-03-20T09:29:45.612Z,95
2017-03-20T09:30:27.871Z,90
2017-03-20T09:31:08.372Z,90
2017-03-20T09:31:48.838Z,85
2017-03-20T09:32:29.971Z,80
2017-03-20T09:33:11.608Z,75
2017-03-20T09:33:52.762Z,85
2017-03-20T09:34:33.176Z,85
2017-03-20T09:35:13.674Z,85
2017-03-20T09:35:54.152Z,80
2017-03-20T09:36:35.064Z,85
2017-03-20T09:37:16.224Z,85
2017-03-20T09:37:57.342Z,85
2017-03-20T09:38:38.518Z,90
2017-03-20T09:39:19.185Z,95
2017-03-20T09:39:59.987Z,100
2017-03-20T09:40:40.472Z,100
2017-03-20T09:41:23.992Z,110
2017-03-20T09:42:03.988Z,105
2017-03-20T09:42:47.051Z,105
2017-03-20T09:43:27.535Z,100
2017-03-20T09:44:08.009Z,115
2017-03-20T09:44:48.485Z,120
2017-03-20T09:45:29.169Z,120
2017-03-20T09:46:09.643Z,125
2017-03-20T09:46:50.313Z,120
2017-03-20T09:47:31.960Z,120
2017-03-20T09:48:16.757Z,120
2017-03-20T09:49:00.495Z,125
2017-03-20T09:49:40.614Z,115
2017-03-20T09:50:21.090Z,120
2017-03-20T09:51:03.963Z,120
2017-03-20T09:51:44.461Z,110
2017-03-20T09:52:24.915Z,105
2017-03-20T09:53:05.452Z,105
2017-03-20T09:53:45.889Z,105
2017-03-20T09:54:26.377Z,105
2017-03-20T09:55:08.558Z,105
2017-03-20T09:55:49.076Z,115
2017-03-20T09:56:29.563Z,105